Terminal Aerodrome Forecast
Issued by NWS

Current Version | Previous Version | Text Only | Print | Product List | Glossary On
Versions: 1 2 3 4 5 6 7 8 9 10 11 12 13 14 15 16 17
000
FTUS44 KLIX 201100
TAFMCB
TAF
KMCB 201135Z 2012/2112 01006KT 6SM BR OVC005
     FM201600 03008KT P6SM BKN015
     FM202000 03008KT P6SM BKN050=

USA.gov is the U.S. government's official web portal to all federal, state and local government web resources and services.